sensor_id;sensor_type;location;lat;lon;timestamp;temperature;humidity
26224;DHT22;14820;48.682;8.890;2022-12-10T00:01:32;1.00;99.90
26224;DHT22;14820;48.682;8.890;2022-12-10T00:03:58;1.00;99.90
26224;DHT22;14820;48.682;8.890;2022-12-10T00:06:27;1.00;99.90
26224;DHT22;14820;48.682;8.890;2022-12-10T00:08:53;1.00;99.90
26224;DHT22;14820;48.682;8.890;2022-12-10T00:11:19;1.00;99.90
26224;DHT22;14820;48.682;8.890;2022-12-10T00:13:45;1.00;99.90
26224;DHT22;14820;48.682;8.890;2022-12-10T00:16:12;1.00;99.90
26224;DHT22;14820;48.682;8.890;2022-12-10T00:18:38;1.00;99.90
26224;DHT22;14820;48.682;8.890;2022-12-10T00:21:04;1.00;99.90
26224;DHT22;14820;48.682;8.890;2022-12-10T00:23:30;1.00;99.90
26224;DHT22;14820;48.682;8.890;2022-12-10T00:26:07;1.00;99.90
26224;DHT22;14820;48.682;8.890;2022-12-10T00:28:33;1.00;99.90
26224;DHT22;14820;48.682;8.890;2022-12-10T00:31:06;1.00;99.90
26224;DHT22;14820;48.682;8.890;2022-12-10T00:33:35;1.00;99.90
26224;DHT22;14820;48.682;8.890;2022-12-10T00:36:05;1.00;99.90
26224;DHT22;14820;48.682;8.890;2022-12-10T00:38:31;1.00;99.90
26224;DHT22;14820;48.682;8.890;2022-12-10T00:40:57;1.00;99.90
26224;DHT22;14820;48.682;8.890;2022-12-10T00:43:22;1.00;99.90
26224;DHT22;14820;48.682;8.890;2022-12-10T00:45:48;1.00;99.90
26224;DHT22;14820;48.682;8.890;2022-12-10T00:48:13;1.00;99.90
26224;DHT22;14820;48.682;8.890;2022-12-10T00:50:39;1.00;99.90
26224;DHT22;14820;48.682;8.890;2022-12-10T00:53:04;1.00;99.90
26224;DHT22;14820;48.682;8.890;2022-12-10T00:55:30;1.00;99.90
26224;DHT22;14820;48.682;8.890;2022-12-10T00:57:55;1.00;99.90
26224;DHT22;14820;48.682;8.890;2022-12-10T01:00:21;1.00;99.90
26224;DHT22;14820;48.682;8.890;2022-12-10T01:02:46;1.00;99.90
26224;DHT22;14820;48.682;8.890;2022-12-10T01:05:12;1.00;99.90
26224;DHT22;14820;48.682;8.890;2022-12-10T01:07:37;1.00;99.90
26224;DHT22;14820;48.682;8.890;2022-12-10T01:10:03;1.00;99.90
26224;DHT22;14820;48.682;8.890;2022-12-10T01:12:29;1.00;99.90
26224;DHT22;14820;48.682;8.890;2022-12-10T01:14:54;1.00;99.90
26224;DHT22;14820;48.682;8.890;2022-12-10T01:17:20;1.00;99.90
26224;DHT22;14820;48.682;8.890;2022-12-10T01:19:46;1.00;99.90
26224;DHT22;14820;48.682;8.890;2022-12-10T01:22:12;1.00;99.90
26224;DHT22;14820;48.682;8.890;2022-12-10T01:24:37;1.00;99.90
26224;DHT22;14820;48.682;8.890;2022-12-10T01:27:03;1.00;99.90
26224;DHT22;14820;48.682;8.890;2022-12-10T01:29:29;1.00;99.90
26224;DHT22;14820;48.682;8.890;2022-12-10T01:31:55;1.00;99.90
26224;DHT22;14820;48.682;8.890;2022-12-10T01:34:21;1.00;99.90
26224;DHT22;14820;48.682;8.890;2022-12-10T01:36:51;1.00;99.90
26224;DHT22;14820;48.682;8.890;2022-12-10T01:39:17;1.00;99.90
26224;DHT22;14820;48.682;8.890;2022-12-10T01:41:53;1.00;99.90
26224;DHT22;14820;48.682;8.890;2022-12-10T01:46:45;1.00;99.90
26224;DHT22;14820;48.682;8.890;2022-12-10T01:49:15;1.00;99.90
26224;DHT22;14820;48.682;8.890;2022-12-10T01:51:42;1.00;99.90
26224;DHT22;14820;48.682;8.890;2022-12-10T01:54:09;1.00;99.90
26224;DHT22;14820;48.682;8.890;2022-12-10T01:56:36;1.00;99.90
26224;DHT22;14820;48.682;8.890;2022-12-10T01:59:03;1.00;99.90
26224;DHT22;14820;48.682;8.890;2022-12-10T02:07:18;1.00;99.90
26224;DHT22;14820;48.682;8.890;2022-12-10T02:09:45;0.90;99.90
26224;DHT22;14820;48.682;8.890;2022-12-10T02:14:46;1.00;99.90
26224;DHT22;14820;48.682;8.890;2022-12-10T02:17:23;1.00;99.90
26224;DHT22;14820;48.682;8.890;2022-12-10T02:22:18;1.00;99.90
26224;DHT22;14820;48.682;8.890;2022-12-10T02:24:44;1.00;99.90
26224;DHT22;14820;48.682;8.890;2022-12-10T02:27:18;0.90;99.90
26224;DHT22;14820;48.682;8.890;2022-12-10T02:29:46;0.90;99.90
26224;DHT22;14820;48.682;8.890;2022-12-10T02:32:17;0.90;99.90
26224;DHT22;14820;48.682;8.890;2022-12-10T02:34:46;0.90;99.90
26224;DHT22;14820;48.682;8.890;2022-12-10T02:37:19;0.90;99.90
26224;DHT22;14820;48.682;8.890;2022-12-10T02:39:48;0.90;99.90
26224;DHT22;14820;48.682;8.890;2022-12-10T02:42:15;0.90;99.90
26224;DHT22;14820;48.682;8.890;2022-12-10T02:44:41;0.90;99.90
26224;DHT22;14820;48.682;8.890;2022-12-10T02:47:08;0.80;99.90
26224;DHT22;14820;48.682;8.890;2022-12-10T02:49:34;0.90;99.90
26224;DHT22;14820;48.682;8.890;2022-12-10T02:52:06;0.90;99.90
26224;DHT22;14820;48.682;8.890;2022-12-10T02:54:41;0.90;99.90
26224;DHT22;14820;48.682;8.890;2022-12-10T02:57:10;0.90;99.90
26224;DHT22;14820;48.682;8.890;2022-12-10T03:03:04;0.90;99.90
26224;DHT22;14820;48.682;8.890;2022-12-10T03:07:55;0.90;99.90
26224;DHT22;14820;48.682;8.890;2022-12-10T03:10:24;0.90;99.90
26224;DHT22;14820;48.682;8.890;2022-12-10T03:12:55;0.90;99.90
26224;DHT22;14820;48.682;8.890;2022-12-10T03:15:22;0.90;99.90
26224;DHT22;14820;48.682;8.890;2022-12-10T03:17:50;0.90;99.90
26224;DHT22;14820;48.682;8.890;2022-12-10T03:20:16;0.90;99.90
26224;DHT22;14820;48.682;8.890;2022-12-10T03:22:44;0.90;99.90
26224;DHT22;14820;48.682;8.890;2022-12-10T03:25:12;0.90;99.90
26224;DHT22;14820;48.682;8.890;2022-12-10T03:27:39;0.80;99.90
26224;DHT22;14820;48.682;8.890;2022-12-10T03:30:05;0.80;99.90
26224;DHT22;14820;48.682;8.890;2022-12-10T03:32:31;0.90;99.90
26224;DHT22;14820;48.682;8.890;2022-12-10T03:34:57;0.80;99.90
26224;DHT22;14820;48.682;8.890;2022-12-10T03:37:23;0.80;99.90
26224;DHT22;14820;48.682;8.890;2022-12-10T03:39:49;0.80;99.90
26224;DHT22;14820;48.682;8.890;2022-12-10T03:42:15;0.80;99.90
26224;DHT22;14820;48.682;8.890;2022-12-10T03:44:41;0.80;99.90
26224;DHT22;14820;48.682;8.890;2022-12-10T03:47:07;0.80;99.90
26224;DHT22;14820;48.682;8.890;2022-12-10T03:49:34;0.80;99.90
26224;DHT22;14820;48.682;8.890;2022-12-10T03:52:00;0.80;99.90
26224;DHT22;14820;48.682;8.890;2022-12-10T03:54:26;0.90;99.90
26224;DHT22;14820;48.682;8.890;2022-12-10T03:56:51;0.90;99.90
26224;DHT22;14820;48.682;8.890;2022-12-10T03:59:17;0.90;99.90
26224;DHT22;14820;48.682;8.890;2022-12-10T04:01:42;0.90;99.90
26224;DHT22;14820;48.682;8.890;2022-12-10T04:04:08;0.90;99.90
26224;DHT22;14820;48.682;8.890;2022-12-10T04:06:33;0.80;99.90
26224;DHT22;14820;48.682;8.890;2022-12-10T04:08:59;0.80;99.90
26224;DHT22;14820;48.682;8.890;2022-12-10T04:11:25;0.80;99.90
26224;DHT22;14820;48.682;8.890;2022-12-10T04:13:50;0.80;99.90
26224;DHT22;14820;48.682;8.890;2022-12-10T04:16:34;0.80;99.90
26224;DHT22;14820;48.682;8.890;2022-12-10T04:19:02;0.90;99.90
26224;DHT22;14820;48.682;8.890;2022-12-10T04:21:28;0.90;99.90
26224;DHT22;14820;48.682;8.890;2022-12-10T04:24:13;0.90;99.90
26224;DHT22;14820;48.682;8.890;2022-12-10T04:26:58;0.90;99.90
26224;DHT22;14820;48.682;8.890;2022-12-10T04:29:25;0.90;99.90
26224;DHT22;14820;48.682;8.890;2022-12-10T04:31:51;0.90;99.90
26224;DHT22;14820;48.682;8.890;2022-12-10T04:34:17;1.00;99.90
26224;DHT22;14820;48.682;8.890;2022-12-10T04:36:42;1.00;99.90
26224;DHT22;14820;48.682;8.890;2022-12-10T04:39:08;0.90;99.90
26224;DHT22;14820;48.682;8.890;2022-12-10T04:41:33;1.00;99.90
26224;DHT22;14820;48.682;8.890;2022-12-10T04:43:59;0.90;99.90
26224;DHT22;14820;48.682;8.890;2022-12-10T04:46:24;1.00;99.90
26224;DHT22;14820;48.682;8.890;2022-12-10T04:48:50;1.00;99.90
26224;DHT22;14820;48.682;8.890;2022-12-10T04:51:15;0.90;99.90
26224;DHT22;14820;48.682;8.890;2022-12-10T04:53:41;0.90;99.90
26224;DHT22;14820;48.682;8.890;2022-12-10T04:56:06;0.90;99.90
26224;DHT22;14820;48.682;8.890;2022-12-10T04:58:32;0.90;99.90
26224;DHT22;14820;48.682;8.890;2022-12-10T05:01:02;0.90;99.90
26224;DHT22;14820;48.682;8.890;2022-12-10T05:03:28;0.90;99.90
26224;DHT22;14820;48.682;8.890;2022-12-10T05:05:53;0.90;99.90
26224;DHT22;14820;48.682;8.890;2022-12-10T05:08:19;0.90;99.90
26224;DHT22;14820;48.682;8.890;2022-12-10T05:10:44;0.90;99.90
26224;DHT22;14820;48.682;8.890;2022-12-10T05:13:10;0.90;99.90
26224;DHT22;14820;48.682;8.890;2022-12-10T05:15:37;0.90;99.90
26224;DHT22;14820;48.682;8.890;2022-12-10T05:18:03;0.90;99.90
26224;DHT22;14820;48.682;8.890;2022-12-10T05:20:28;0.90;99.90
26224;DHT22;14820;48.682;8.890;2022-12-10T05:22:54;0.90;99.90
26224;DHT22;14820;48.682;8.890;2022-12-10T05:25:38;0.90;99.90
26224;DHT22;14820;48.682;8.890;2022-12-10T05:28:23;0.80;99.90
26224;DHT22;14820;48.682;8.890;2022-12-10T05:30:49;0.90;99.90
26224;DHT22;14820;48.682;8.890;2022-12-10T05:33:15;0.90;99.90
26224;DHT22;14820;48.682;8.890;2022-12-10T05:35:40;0.90;99.90
26224;DHT22;14820;48.682;8.890;2022-12-10T05:38:06;0.90;99.90
26224;DHT22;14820;48.682;8.890;2022-12-10T05:40:34;0.90;99.90
26224;DHT22;14820;48.682;8.890;2022-12-10T05:43:00;0.90;99.90
26224;DHT22;14820;48.682;8.890;2022-12-10T05:45:26;0.90;99.90
26224;DHT22;14820;48.682;8.890;2022-12-10T05:47:52;0.90;99.90
26224;DHT22;14820;48.682;8.890;2022-12-10T05:50:17;0.90;99.90
26224;DHT22;14820;48.682;8.890;2022-12-10T05:52:43;0.80;99.90
26224;DHT22;14820;48.682;8.890;2022-12-10T05:55:08;0.80;99.90
26224;DHT22;14820;48.682;8.890;2022-12-10T05:57:35;0.90;99.90
26224;DHT22;14820;48.682;8.890;2022-12-10T06:00:01;0.80;99.90
26224;DHT22;14820;48.682;8.890;2022-12-10T06:02:26;0.80;99.90
26224;DHT22;14820;48.682;8.890;2022-12-10T06:04:52;0.80;99.90
26224;DHT22;14820;48.682;8.890;2022-12-10T06:07:17;0.80;99.90
26224;DHT22;14820;48.682;8.890;2022-12-10T06:09:43;0.80;99.90
26224;DHT22;14820;48.682;8.890;2022-12-10T06:12:08;0.80;99.90
26224;DHT22;14820;48.682;8.890;2022-12-10T06:14:34;0.80;99.90
26224;DHT22;14820;48.682;8.890;2022-12-10T06:16:59;0.90;99.90
26224;DHT22;14820;48.682;8.890;2022-12-10T06:19:25;0.80;99.90
26224;DHT22;14820;48.682;8.890;2022-12-10T06:21:50;0.80;99.90
26224;DHT22;14820;48.682;8.890;2022-12-10T06:24:16;0.80;99.90
26224;DHT22;14820;48.682;8.890;2022-12-10T06:26:41;0.80;99.90
26224;DHT22;14820;48.682;8.890;2022-12-10T06:29:08;0.80;99.90
26224;DHT22;14820;48.682;8.890;2022-12-10T06:31:34;0.80;99.90
26224;DHT22;14820;48.682;8.890;2022-12-10T06:33:59;0.80;99.90
26224;DHT22;14820;48.682;8.890;2022-12-10T06:36:25;0.70;99.90
26224;DHT22;14820;48.682;8.890;2022-12-10T06:38:50;0.70;99.90
26224;DHT22;14820;48.682;8.890;2022-12-10T06:41:16;0.70;99.90
26224;DHT22;14820;48.682;8.890;2022-12-10T06:43:42;0.70;99.90
26224;DHT22;14820;48.682;8.890;2022-12-10T06:46:12;0.70;99.90
26224;DHT22;14820;48.682;8.890;2022-12-10T06:48:38;0.70;99.90
26224;DHT22;14820;48.682;8.890;2022-12-10T06:51:03;0.70;99.90
26224;DHT22;14820;48.682;8.890;2022-12-10T06:53:29;0.70;99.90
26224;DHT22;14820;48.682;8.890;2022-12-10T06:55:57;0.70;99.90
26224;DHT22;14820;48.682;8.890;2022-12-10T06:58:22;0.70;99.90
26224;DHT22;14820;48.682;8.890;2022-12-10T07:00:48;0.70;99.90
26224;DHT22;14820;48.682;8.890;2022-12-10T07:03:13;0.70;99.90
26224;DHT22;14820;48.682;8.890;2022-12-10T07:05:39;0.70;99.90
26224;DHT22;14820;48.682;8.890;2022-12-10T07:08:04;0.60;99.90
26224;DHT22;14820;48.682;8.890;2022-12-10T07:10:30;0.60;99.90
26224;DHT22;14820;48.682;8.890;2022-12-10T07:12:55;0.70;99.90
26224;DHT22;14820;48.682;8.890;2022-12-10T07:15:21;0.60;99.90
26224;DHT22;14820;48.682;8.890;2022-12-10T07:17:50;0.60;99.90
26224;DHT22;14820;48.682;8.890;2022-12-10T07:20:15;0.60;99.90
26224;DHT22;14820;48.682;8.890;2022-12-10T07:22:41;0.60;99.90
26224;DHT22;14820;48.682;8.890;2022-12-10T07:25:06;0.70;99.90
26224;DHT22;14820;48.682;8.890;2022-12-10T07:27:32;0.70;99.90
26224;DHT22;14820;48.682;8.890;2022-12-10T07:29:58;0.60;99.90
26224;DHT22;14820;48.682;8.890;2022-12-10T07:32:23;0.60;99.90
26224;DHT22;14820;48.682;8.890;2022-12-10T07:34:48;0.70;99.90
26224;DHT22;14820;48.682;8.890;2022-12-10T07:37:14;0.70;99.90
26224;DHT22;14820;48.682;8.890;2022-12-10T07:39:39;0.70;99.90
26224;DHT22;14820;48.682;8.890;2022-12-10T07:42:08;0.70;99.90
26224;DHT22;14820;48.682;8.890;2022-12-10T07:44:36;0.70;99.90
26224;DHT22;14820;48.682;8.890;2022-12-10T07:47:02;0.60;99.90
26224;DHT22;14820;48.682;8.890;2022-12-10T07:49:28;0.60;99.90
26224;DHT22;14820;48.682;8.890;2022-12-10T07:51:54;0.60;99.90
26224;DHT22;14820;48.682;8.890;2022-12-10T07:54:19;0.60;99.90
26224;DHT22;14820;48.682;8.890;2022-12-10T07:56:45;0.70;99.90
26224;DHT22;14820;48.682;8.890;2022-12-10T07:59:13;0.70;99.90
26224;DHT22;14820;48.682;8.890;2022-12-10T08:01:39;0.60;99.90
26224;DHT22;14820;48.682;8.890;2022-12-10T08:04:05;0.70;99.90
26224;DHT22;14820;48.682;8.890;2022-12-10T08:06:30;0.60;99.90
26224;DHT22;14820;48.682;8.890;2022-12-10T08:08:57;0.70;99.90
26224;DHT22;14820;48.682;8.890;2022-12-10T08:11:23;0.60;99.90
26224;DHT22;14820;48.682;8.890;2022-12-10T08:13:48;0.70;99.90
26224;DHT22;14820;48.682;8.890;2022-12-10T08:16:16;0.70;99.90
26224;DHT22;14820;48.682;8.890;2022-12-10T08:18:42;0.70;99.90
26224;DHT22;14820;48.682;8.890;2022-12-10T08:21:11;0.70;99.90
26224;DHT22;14820;48.682;8.890;2022-12-10T08:23:37;0.70;99.90
26224;DHT22;14820;48.682;8.890;2022-12-10T08:26:04;0.70;99.90
26224;DHT22;14820;48.682;8.890;2022-12-10T08:28:29;0.70;99.90
26224;DHT22;14820;48.682;8.890;2022-12-10T08:30:55;0.70;99.90
26224;DHT22;14820;48.682;8.890;2022-12-10T08:33:20;0.80;99.90
26224;DHT22;14820;48.682;8.890;2022-12-10T08:35:46;0.80;99.90
26224;DHT22;14820;48.682;8.890;2022-12-10T08:38:11;0.80;99.90
26224;DHT22;14820;48.682;8.890;2022-12-10T08:40:40;0.80;99.90
26224;DHT22;14820;48.682;8.890;2022-12-10T08:43:06;0.80;99.90
26224;DHT22;14820;48.682;8.890;2022-12-10T08:45:31;0.80;99.90
26224;DHT22;14820;48.682;8.890;2022-12-10T08:47:57;0.80;99.90
26224;DHT22;14820;48.682;8.890;2022-12-10T08:50:22;0.80;99.90
26224;DHT22;14820;48.682;8.890;2022-12-10T08:52:48;0.80;99.90
26224;DHT22;14820;48.682;8.890;2022-12-10T08:55:13;0.80;99.90
26224;DHT22;14820;48.682;8.890;2022-12-10T08:57:39;0.80;99.90
26224;DHT22;14820;48.682;8.890;2022-12-10T09:00:05;0.70;99.90
26224;DHT22;14820;48.682;8.890;2022-12-10T09:02:31;0.70;99.90
26224;DHT22;14820;48.682;8.890;2022-12-10T09:04:56;0.80;99.90
26224;DHT22;14820;48.682;8.890;2022-12-10T09:07:22;0.80;99.90
26224;DHT22;14820;48.682;8.890;2022-12-10T09:09:47;0.80;99.90
26224;DHT22;14820;48.682;8.890;2022-12-10T09:12:13;0.80;99.90
26224;DHT22;14820;48.682;8.890;2022-12-10T09:14:38;0.80;99.90
26224;DHT22;14820;48.682;8.890;2022-12-10T09:17:05;0.80;99.90
26224;DHT22;14820;48.682;8.890;2022-12-10T09:19:31;0.80;99.90
26224;DHT22;14820;48.682;8.890;2022-12-10T09:21:56;0.80;99.90
26224;DHT22;14820;48.682;8.890;2022-12-10T09:24:22;0.80;99.90
26224;DHT22;14820;48.682;8.890;2022-12-10T09:26:48;0.80;99.90
26224;DHT22;14820;48.682;8.890;2022-12-10T09:29:14;0.80;99.90
26224;DHT22;14820;48.682;8.890;2022-12-10T09:31:39;0.90;99.90
26224;DHT22;14820;48.682;8.890;2022-12-10T09:34:05;0.90;99.90
26224;DHT22;14820;48.682;8.890;2022-12-10T09:36:30;0.90;99.90
26224;DHT22;14820;48.682;8.890;2022-12-10T09:38:56;0.90;99.90
26224;DHT22;14820;48.682;8.890;2022-12-10T09:41:32;0.90;99.90
26224;DHT22;14820;48.682;8.890;2022-12-10T09:51:48;1.00;99.90
26224;DHT22;14820;48.682;8.890;2022-12-10T09:56:45;0.90;99.90
26224;DHT22;14820;48.682;8.890;2022-12-10T09:59:15;1.00;99.90
26224;DHT22;14820;48.682;8.890;2022-12-10T10:01:42;0.90;99.90
26224;DHT22;14820;48.682;8.890;2022-12-10T10:04:08;0.80;99.90
26224;DHT22;14820;48.682;8.890;2022-12-10T10:06:34;0.90;99.90
26224;DHT22;14820;48.682;8.890;2022-12-10T10:09:01;0.90;99.90
26224;DHT22;14820;48.682;8.890;2022-12-10T10:11:31;0.90;99.90
26224;DHT22;14820;48.682;8.890;2022-12-10T10:13:58;1.00;99.90
26224;DHT22;14820;48.682;8.890;2022-12-10T10:18:54;1.00;99.90
26224;DHT22;14820;48.682;8.890;2022-12-10T10:21:21;1.00;99.90
26224;DHT22;14820;48.682;8.890;2022-12-10T10:23:47;1.00;99.90
26224;DHT22;14820;48.682;8.890;2022-12-10T10:26:12;1.10;99.90
26224;DHT22;14820;48.682;8.890;2022-12-10T10:28:38;1.00;99.90
26224;DHT22;14820;48.682;8.890;2022-12-10T10:31:12;1.00;99.90
26224;DHT22;14820;48.682;8.890;2022-12-10T10:33:51;1.10;99.90
26224;DHT22;14820;48.682;8.890;2022-12-10T10:41:42;1.00;99.90
26224;DHT22;14820;48.682;8.890;2022-12-10T10:44:15;0.90;99.90
26224;DHT22;14820;48.682;8.890;2022-12-10T10:46:42;0.90;99.90
26224;DHT22;14820;48.682;8.890;2022-12-10T10:51:47;1.00;99.90
26224;DHT22;14820;48.682;8.890;2022-12-10T10:54:30;1.00;99.90
26224;DHT22;14820;48.682;8.890;2022-12-10T10:56:56;1.10;99.90
26224;DHT22;14820;48.682;8.890;2022-12-10T11:01:54;1.20;99.90
26224;DHT22;14820;48.682;8.890;2022-12-10T11:04:24;1.20;99.90
26224;DHT22;14820;48.682;8.890;2022-12-10T11:06:54;1.20;99.90
26224;DHT22;14820;48.682;8.890;2022-12-10T11:09:24;1.20;99.90
26224;DHT22;14820;48.682;8.890;2022-12-10T11:11:51;1.20;99.90
26224;DHT22;14820;48.682;8.890;2022-12-10T11:14:24;1.20;99.90
26224;DHT22;14820;48.682;8.890;2022-12-10T11:16:50;1.20;99.90
26224;DHT22;14820;48.682;8.890;2022-12-10T11:19:20;1.20;99.90
26224;DHT22;14820;48.682;8.890;2022-12-10T11:21:46;1.20;99.90
26224;DHT22;14820;48.682;8.890;2022-12-10T11:24:12;1.20;99.90
26224;DHT22;14820;48.682;8.890;2022-12-10T11:31:34;1.30;99.90
26224;DHT22;14820;48.682;8.890;2022-12-10T11:36:56;1.20;99.90
26224;DHT22;14820;48.682;8.890;2022-12-10T11:44:32;1.20;99.90
26224;DHT22;14820;48.682;8.890;2022-12-10T11:47:04;1.20;99.90
26224;DHT22;14820;48.682;8.890;2022-12-10T11:52:17;1.10;99.90
26224;DHT22;14820;48.682;8.890;2022-12-10T12:00:00;1.20;99.90
26224;DHT22;14820;48.682;8.890;2022-12-10T12:05:14;1.30;99.90
26224;DHT22;14820;48.682;8.890;2022-12-10T12:12:56;1.30;99.90
26224;DHT22;14820;48.682;8.890;2022-12-10T12:15:30;1.30;99.90
26224;DHT22;14820;48.682;8.890;2022-12-10T12:17:59;1.30;99.90
26224;DHT22;14820;48.682;8.890;2022-12-10T12:20:34;1.30;99.90
26224;DHT22;14820;48.682;8.890;2022-12-10T12:23:05;1.40;99.90
26224;DHT22;14820;48.682;8.890;2022-12-10T12:25:35;1.40;99.90
26224;DHT22;14820;48.682;8.890;2022-12-10T12:30:33;1.30;99.90
26224;DHT22;14820;48.682;8.890;2022-12-10T12:35:58;1.20;99.90
26224;DHT22;14820;48.682;8.890;2022-12-10T12:38:43;1.30;99.90
26224;DHT22;14820;48.682;8.890;2022-12-10T12:41:15;1.20;99.90
26224;DHT22;14820;48.682;8.890;2022-12-10T12:46:17;1.20;99.90
26224;DHT22;14820;48.682;8.890;2022-12-10T12:48:46;1.30;99.90
26224;DHT22;14820;48.682;8.890;2022-12-10T12:51:27;1.20;99.90
26224;DHT22;14820;48.682;8.890;2022-12-10T12:53:54;1.20;99.90
26224;DHT22;14820;48.682;8.890;2022-12-10T12:58:47;1.30;99.90
26224;DHT22;14820;48.682;8.890;2022-12-10T13:01:26;1.30;99.90
26224;DHT22;14820;48.682;8.890;2022-12-10T13:03:53;1.30;99.90
26224;DHT22;14820;48.682;8.890;2022-12-10T13:09:30;1.40;99.90
26224;DHT22;14820;48.682;8.890;2022-12-10T13:11:31;1.30;99.90
26224;DHT22;14820;48.682;8.890;2022-12-10T13:24:21;1.30;99.90
26224;DHT22;14820;48.682;8.890;2022-12-10T13:27:03;1.40;99.90
26224;DHT22;14820;48.682;8.890;2022-12-10T13:29:29;1.30;99.90
26224;DHT22;14820;48.682;8.890;2022-12-10T13:32:18;1.20;99.90
26224;DHT22;14820;48.682;8.890;2022-12-10T13:34:44;1.20;99.90
26224;DHT22;14820;48.682;8.890;2022-12-10T13:37:14;1.10;99.90
26224;DHT22;14820;48.682;8.890;2022-12-10T13:39:48;1.10;99.90
26224;DHT22;14820;48.682;8.890;2022-12-10T13:45:05;1.10;99.90
26224;DHT22;14820;48.682;8.890;2022-12-10T13:50:04;1.10;99.90
26224;DHT22;14820;48.682;8.890;2022-12-10T14:00:15;1.10;99.90
26224;DHT22;14820;48.682;8.890;2022-12-10T14:05:33;1.10;99.90
26224;DHT22;14820;48.682;8.890;2022-12-10T14:08:03;1.10;99.90
26224;DHT22;14820;48.682;8.890;2022-12-10T14:10:35;1.10;99.90
26224;DHT22;14820;48.682;8.890;2022-12-10T14:13:02;1.10;99.90
26224;DHT22;14820;48.682;8.890;2022-12-10T14:15:28;1.10;99.90
26224;DHT22;14820;48.682;8.890;2022-12-10T14:17:57;1.10;99.90
26224;DHT22;14820;48.682;8.890;2022-12-10T14:20:24;1.10;99.90
26224;DHT22;14820;48.682;8.890;2022-12-10T14:22:51;1.00;99.90
26224;DHT22;14820;48.682;8.890;2022-12-10T14:25:18;1.00;99.90
26224;DHT22;14820;48.682;8.890;2022-12-10T14:27:48;1.00;99.90
26224;DHT22;14820;48.682;8.890;2022-12-10T14:32:43;0.90;99.90
26224;DHT22;14820;48.682;8.890;2022-12-10T14:35:13;1.00;99.90
26224;DHT22;14820;48.682;8.890;2022-12-10T14:37:40;1.00;99.90
26224;DHT22;14820;48.682;8.890;2022-12-10T14:40:06;1.00;99.90
26224;DHT22;14820;48.682;8.890;2022-12-10T14:42:32;1.00;99.90
26224;DHT22;14820;48.682;8.890;2022-12-10T14:45:04;1.00;99.90
26224;DHT22;14820;48.682;8.890;2022-12-10T14:47:37;0.90;99.90
26224;DHT22;14820;48.682;8.890;2022-12-10T14:50:04;0.90;99.90
26224;DHT22;14820;48.682;8.890;2022-12-10T14:52:32;0.90;99.90
26224;DHT22;14820;48.682;8.890;2022-12-10T14:55:00;0.80;99.90
26224;DHT22;14820;48.682;8.890;2022-12-10T14:57:30;0.80;99.90
26224;DHT22;14820;48.682;8.890;2022-12-10T15:00:04;0.70;99.90
26224;DHT22;14820;48.682;8.890;2022-12-10T15:02:33;0.80;99.90
26224;DHT22;14820;48.682;8.890;2022-12-10T15:04:59;0.80;99.90
26224;DHT22;14820;48.682;8.890;2022-12-10T15:07:26;0.80;99.90
26224;DHT22;14820;48.682;8.890;2022-12-10T15:09:52;0.70;99.90
26224;DHT22;14820;48.682;8.890;2022-12-10T15:14:50;0.70;99.90
26224;DHT22;14820;48.682;8.890;2022-12-10T15:17:31;0.70;99.90
26224;DHT22;14820;48.682;8.890;2022-12-10T15:19:57;0.70;99.90
26224;DHT22;14820;48.682;8.890;2022-12-10T15:22:24;0.70;99.90
26224;DHT22;14820;48.682;8.890;2022-12-10T15:24:52;0.60;99.90
26224;DHT22;14820;48.682;8.890;2022-12-10T15:27:22;0.60;99.90
26224;DHT22;14820;48.682;8.890;2022-12-10T15:29:48;0.60;99.90
26224;DHT22;14820;48.682;8.890;2022-12-10T15:32:15;0.50;99.90
26224;DHT22;14820;48.682;8.890;2022-12-10T15:34:46;0.60;99.90
26224;DHT22;14820;48.682;8.890;2022-12-10T15:37:32;0.60;99.90
26224;DHT22;14820;48.682;8.890;2022-12-10T15:39:59;0.60;99.90
26224;DHT22;14820;48.682;8.890;2022-12-10T15:42:44;0.60;99.90
26224;DHT22;14820;48.682;8.890;2022-12-10T15:47:41;0.50;99.90
26224;DHT22;14820;48.682;8.890;2022-12-10T15:50:08;0.50;99.90
26224;DHT22;14820;48.682;8.890;2022-12-10T15:52:33;0.50;99.90
26224;DHT22;14820;48.682;8.890;2022-12-10T15:55:00;0.50;99.90
26224;DHT22;14820;48.682;8.890;2022-12-10T15:57:27;0.50;99.90
26224;DHT22;14820;48.682;8.890;2022-12-10T15:59:53;0.50;99.90
26224;DHT22;14820;48.682;8.890;2022-12-10T16:02:26;0.40;99.90
26224;DHT22;14820;48.682;8.890;2022-12-10T16:04:57;0.40;99.90
26224;DHT22;14820;48.682;8.890;2022-12-10T16:07:22;0.50;99.90
26224;DHT22;14820;48.682;8.890;2022-12-10T16:09:48;0.40;99.90
26224;DHT22;14820;48.682;8.890;2022-12-10T16:12:14;0.50;99.90
26224;DHT22;14820;48.682;8.890;2022-12-10T16:14:46;0.40;99.90
26224;DHT22;14820;48.682;8.890;2022-12-10T16:17:12;0.40;99.90
26224;DHT22;14820;48.682;8.890;2022-12-10T16:19:38;0.40;99.90
26224;DHT22;14820;48.682;8.890;2022-12-10T16:22:04;0.40;99.90
26224;DHT22;14820;48.682;8.890;2022-12-10T16:24:30;0.40;99.90
26224;DHT22;14820;48.682;8.890;2022-12-10T16:26:55;0.40;99.90
26224;DHT22;14820;48.682;8.890;2022-12-10T16:29:21;0.40;99.90
26224;DHT22;14820;48.682;8.890;2022-12-10T16:31:47;0.30;99.90
26224;DHT22;14820;48.682;8.890;2022-12-10T16:34:12;0.30;99.90
26224;DHT22;14820;48.682;8.890;2022-12-10T16:36:38;0.20;99.90
26224;DHT22;14820;48.682;8.890;2022-12-10T16:39:03;0.30;99.90
26224;DHT22;14820;48.682;8.890;2022-12-10T16:41:30;0.20;99.90
26224;DHT22;14820;48.682;8.890;2022-12-10T16:43:56;0.20;99.90
26224;DHT22;14820;48.682;8.890;2022-12-10T16:46:21;0.20;99.90
26224;DHT22;14820;48.682;8.890;2022-12-10T16:48:47;0.20;99.90
26224;DHT22;14820;48.682;8.890;2022-12-10T16:51:14;0.20;99.90
26224;DHT22;14820;48.682;8.890;2022-12-10T16:53:41;0.10;99.90
26224;DHT22;14820;48.682;8.890;2022-12-10T16:56:09;0.10;99.90
26224;DHT22;14820;48.682;8.890;2022-12-10T16:58:35;0.10;99.90
26224;DHT22;14820;48.682;8.890;2022-12-10T17:01:00;0.10;99.90
26224;DHT22;14820;48.682;8.890;2022-12-10T17:03:26;0.10;99.90
26224;DHT22;14820;48.682;8.890;2022-12-10T17:05:54;0.00;99.90
26224;DHT22;14820;48.682;8.890;2022-12-10T17:08:20;0.10;99.90
26224;DHT22;14820;48.682;8.890;2022-12-10T17:10:45;0.00;99.90
26224;DHT22;14820;48.682;8.890;2022-12-10T17:13:31;0.00;99.90
26224;DHT22;14820;48.682;8.890;2022-12-10T17:15:57;0.00;99.90
26224;DHT22;14820;48.682;8.890;2022-12-10T17:18:22;0.00;99.90
26224;DHT22;14820;48.682;8.890;2022-12-10T17:20:48;0.00;99.90
26224;DHT22;14820;48.682;8.890;2022-12-10T17:23:14;-0.10;99.90
26224;DHT22;14820;48.682;8.890;2022-12-10T17:25:40;-0.10;99.90
26224;DHT22;14820;48.682;8.890;2022-12-10T17:28:06;0.00;99.90
26224;DHT22;14820;48.682;8.890;2022-12-10T17:30:32;0.00;99.90
26224;DHT22;14820;48.682;8.890;2022-12-10T17:32:57;-0.10;99.90
26224;DHT22;14820;48.682;8.890;2022-12-10T17:35:23;-0.10;99.90
26224;DHT22;14820;48.682;8.890;2022-12-10T17:37:48;-0.10;99.90
26224;DHT22;14820;48.682;8.890;2022-12-10T17:40:19;-0.10;99.90
26224;DHT22;14820;48.682;8.890;2022-12-10T17:42:44;-0.10;99.90
26224;DHT22;14820;48.682;8.890;2022-12-10T17:45:14;-0.10;99.90